Time;durP1;ratioP1;P1;durP2;ratioP2;P2;SDS_P1;SDS_P2;PMS_P1;PMS_P2;Temp;Humidity;BMP_temperature;BMP_pressure;BME280_temperature;BME280_humidity;BME280_pressure;Samples;Min_cycle;Max_cycle;Signal;HPM_P1;HPM_P2
2023/06/02 00:01:04;;;;;;;18.13;2.70;;;11.30;99.90;;;;;;5093071;28;20192;-85
2023/06/02 00:03:32;;;;;;;17.35;3.33;;;11.20;99.90;;;;;;5093321;28;20177;-85
2023/06/02 00:06:06;;;;;;;13.63;2.97;;;11.20;99.90;;;;;;5093251;28;20224;-85
2023/06/02 00:08:33;;;;;;;15.13;2.75;;;11.10;99.90;;;;;;5094481;28;20177;-85
2023/06/02 00:11:00;;;;;;;12.05;2.78;;;11.00;99.90;;;;;;5093395;28;20187;-85
2023/06/02 00:13:26;;;;;;;14.32;2.70;;;11.00;99.90;;;;;;5093915;28;20187;-86
2023/06/02 00:15:52;;;;;;;14.80;3.35;;;11.00;99.90;;;;;;5092819;28;20192;-86
2023/06/02 00:18:20;;;;;;;19.27;3.10;;;10.90;99.90;;;;;;5094334;28;20561;-85
2023/06/02 00:20:46;;;;;;;22.95;3.53;;;10.90;99.90;;;;;;5093111;28;20265;-85
2023/06/02 00:23:12;;;;;;;14.05;3.33;;;10.80;99.90;;;;;;5092831;28;20212;-85
2023/06/02 00:25:39;;;;;;;12.75;3.30;;;10.70;99.90;;;;;;5094516;28;20279;-84
2023/06/02 00:28:05;;;;;;;14.35;3.05;;;10.70;99.90;;;;;;5092759;28;20267;-84
2023/06/02 00:30:31;;;;;;;13.85;2.92;;;10.70;99.90;;;;;;5093828;28;20312;-85
2023/06/02 00:32:57;;;;;;;10.60;2.33;;;10.70;99.90;;;;;;5092862;28;20267;-86
2023/06/02 00:35:22;;;;;;;16.27;2.95;;;10.60;99.90;;;;;;5094188;28;20172;-85
2023/06/02 00:37:48;;;;;;;14.35;2.85;;;10.60;99.90;;;;;;5092888;28;20177;-85
2023/06/02 00:40:14;;;;;;;23.17;4.10;;;10.50;99.90;;;;;;5093731;28;20177;-85
2023/06/02 00:42:40;;;;;;;18.08;3.17;;;10.40;99.90;;;;;;5093644;28;20680;-84
2023/06/02 00:45:06;;;;;;;11.50;2.80;;;10.40;99.90;;;;;;5092554;28;20519;-84
2023/06/02 00:47:32;;;;;;;10.68;2.80;;;10.40;99.90;;;;;;5093754;28;20168;-83
2023/06/02 00:49:58;;;;;;;17.05;3.40;;;10.40;99.90;;;;;;5093881;28;20181;-85
2023/06/02 00:52:25;;;;;;;24.77;3.55;;;10.30;99.90;;;;;;5093816;28;20173;-84
2023/06/02 00:54:51;;;;;;;16.17;2.88;;;10.30;99.90;;;;;;5092401;28;20184;-84
2023/06/02 00:57:17;;;;;;;13.43;3.08;;;10.30;99.90;;;;;;5091930;28;20176;-84
2023/06/02 00:59:46;;;;;;;14.85;2.80;;;10.30;99.90;;;;;;5092453;28;20568;-84
2023/06/02 01:02:13;;;;;;;18.45;2.92;;;10.20;99.90;;;;;;5092124;28;20550;-84
2023/06/02 01:04:46;;;;;;;11.43;2.83;;;10.20;99.90;;;;;;5092274;28;20506;-84
2023/06/02 01:07:13;;;;;;;15.52;2.85;;;10.10;99.90;;;;;;5093626;28;20202;-83
2023/06/02 01:09:40;;;;;;;14.93;3.03;;;10.00;99.90;;;;;;5091861;28;20826;-85
2023/06/02 01:12:07;;;;;;;17.58;3.35;;;10.00;99.90;;;;;;5092183;28;20187;-84
2023/06/02 01:14:33;;;;;;;11.02;2.50;;;9.90;99.90;;;;;;5092260;28;20168;-84
2023/06/02 01:16:59;;;;;;;14.55;2.67;;;9.80;99.90;;;;;;5092082;28;20180;-84
2023/06/02 01:19:26;;;;;;;16.08;2.92;;;9.90;99.90;;;;;;5093532;28;20153;-84
2023/06/02 01:21:59;;;;;;;16.58;3.00;;;9.80;99.90;;;;;;5092635;28;20231;-84
2023/06/02 01:24:39;;;;;;;16.73;3.17;;;9.80;99.90;;;;;;5097394;28;20157;-84
2023/06/02 01:27:06;;;;;;;14.10;3.15;;;9.80;99.90;;;;;;5096119;28;20198;-84
2023/06/02 01:29:35;;;;;;;15.07;3.67;;;9.70;99.90;;;;;;5097545;28;20679;-84
2023/06/02 01:32:08;;;;;;;9.88;2.58;;;9.60;99.90;;;;;;5095842;28;20680;-84
2023/06/02 01:35:10;;;;;;;14.48;2.80;;;9.60;99.90;;;;;;5097103;28;20542;-84
2023/06/02 01:37:43;;;;;;;10.13;2.58;;;9.60;99.90;;;;;;5018462;28;20182;-84
2023/06/02 01:40:11;;;;;;;11.05;2.90;;;9.60;99.90;;;;;;5088076;28;20263;-84
2023/06/02 01:42:38;;;;;;;12.15;2.63;;;9.60;99.90;;;;;;5095300;28;20208;-84
2023/06/02 01:45:07;;;;;;;18.25;3.10;;;9.60;99.90;;;;;;5096985;28;20180;-83
2023/06/02 01:47:32;;;;;;;10.45;2.58;;;9.60;99.90;;;;;;5095688;28;20172;-84
2023/06/02 01:49:58;;;;;;;11.85;2.67;;;9.60;99.90;;;;;;5095933;28;20511;-84
2023/06/02 01:52:24;;;;;;;11.93;2.92;;;9.70;99.90;;;;;;5096956;28;20177;-84
2023/06/02 01:54:51;;;;;;;11.20;2.83;;;9.70;99.90;;;;;;5095530;28;20169;-84
2023/06/02 01:57:16;;;;;;;10.35;2.60;;;9.70;99.90;;;;;;5096891;28;20168;-83
2023/06/02 01:59:42;;;;;;;9.90;2.38;;;9.70;99.90;;;;;;5095359;28;20161;-84
2023/06/02 02:02:08;;;;;;;15.43;3.15;;;9.70;99.90;;;;;;5095367;28;20232;-84
2023/06/02 02:04:34;;;;;;;11.55;2.92;;;9.80;99.90;;;;;;5096441;28;20164;-84
2023/06/02 02:07:01;;;;;;;15.30;3.08;;;9.80;99.90;;;;;;5095611;28;20691;-83
2023/06/02 02:09:27;;;;;;;13.23;3.25;;;9.80;99.90;;;;;;5096849;28;20646;-84
2023/06/02 02:11:53;;;;;;;11.43;2.78;;;9.80;99.90;;;;;;5095063;28;20180;-82
2023/06/02 02:14:19;;;;;;;9.15;2.78;;;9.80;99.90;;;;;;5096444;28;20237;-83
2023/06/02 02:16:49;;;;;;;12.60;3.28;;;9.80;99.90;;;;;;5096459;28;20252;-83
2023/06/02 02:19:16;;;;;;;10.73;2.92;;;9.80;99.90;;;;;;5096446;28;20165;-83
2023/06/02 02:21:42;;;;;;;11.05;2.42;;;9.80;99.90;;;;;;5095135;28;20212;-84
2023/06/02 02:24:08;;;;;;;10.88;2.90;;;9.90;99.90;;;;;;5096504;28;20216;-83
2023/06/02 02:26:35;;;;;;;10.85;2.92;;;9.90;99.90;;;;;;5096233;28;20196;-83
2023/06/02 02:29:01;;;;;;;9.73;2.35;;;9.90;99.90;;;;;;5096204;28;20248;-83
2023/06/02 02:31:27;;;;;;;13.10;3.20;;;9.90;99.90;;;;;;5094758;28;20208;-84
2023/06/02 02:33:53;;;;;;;13.23;2.97;;;9.80;99.90;;;;;;5095096;28;20183;-83
2023/06/02 02:36:19;;;;;;;15.77;3.25;;;9.80;99.90;;;;;;5096095;28;20172;-83
2023/06/02 02:38:47;;;;;;;11.07;2.83;;;9.90;99.90;;;;;;5096429;28;20176;-83
2023/06/02 02:41:12;;;;;;;13.13;2.53;;;9.90;99.90;;;;;;5094431;28;20179;-83
2023/06/02 02:43:38;;;;;;;13.52;2.72;;;9.90;99.90;;;;;;5095695;28;20181;-83
2023/06/02 02:46:04;;;;;;;12.45;3.17;;;9.90;99.90;;;;;;5095798;28;20607;-83
2023/06/02 02:48:30;;;;;;;11.93;2.58;;;9.90;99.90;;;;;;5082307;28;20169;-83
2023/06/02 02:50:55;;;;;;;12.25;2.80;;;9.90;99.90;;;;;;5074353;28;20181;-84
2023/06/02 02:53:21;;;;;;;14.18;2.83;;;9.80;99.90;;;;;;5075593;28;20184;-84
2023/06/02 02:58:24;;;;;;;8.27;2.28;;;9.70;99.90;;;;;;5243267;22;20282;-89
2023/06/02 03:00:50;;;;;;;14.18;2.75;;;9.60;99.90;;;;;;5034821;28;20182;-89
2023/06/02 03:03:16;;;;;;;12.73;2.42;;;9.60;99.90;;;;;;5034407;28;20237;-89
2023/06/02 03:05:42;;;;;;;10.53;2.47;;;9.60;99.90;;;;;;5037430;28;20277;-88
2023/06/02 03:08:09;;;;;;;13.20;2.78;;;9.60;99.90;;;;;;5054595;28;20236;-90
2023/06/02 03:10:36;;;;;;;15.45;2.92;;;9.60;99.90;;;;;;5054690;28;20181;-89
2023/06/02 03:13:01;;;;;;;12.25;2.70;;;9.50;99.90;;;;;;5054732;28;20170;-88
2023/06/02 03:15:27;;;;;;;11.10;2.58;;;9.50;99.90;;;;;;5054868;28;20264;-88
2023/06/02 03:17:55;;;;;;;15.38;2.70;;;9.50;99.90;;;;;;5054665;28;20178;-88
2023/06/02 03:20:21;;;;;;;11.48;2.28;;;9.50;99.90;;;;;;5054814;28;20182;-90
2023/06/02 03:22:47;;;;;;;16.00;3.78;;;9.50;99.90;;;;;;5053991;28;20300;-88
2023/06/02 03:25:13;;;;;;;16.63;3.20;;;9.50;99.90;;;;;;5054491;28;20295;-89
2023/06/02 03:27:39;;;;;;;11.35;2.83;;;9.50;99.90;;;;;;5053897;28;20516;-89
2023/06/02 03:30:06;;;;;;;10.30;2.80;;;9.50;99.90;;;;;;5054458;28;20631;-88
2023/06/02 03:32:32;;;;;;;13.90;2.67;;;9.50;99.90;;;;;;5054153;28;20174;-89
2023/06/02 03:34:58;;;;;;;13.68;2.60;;;9.50;99.90;;;;;;5054454;28;20173;-89
2023/06/02 03:37:24;;;;;;;11.65;2.80;;;9.50;99.90;;;;;;5053971;28;20542;-88
2023/06/02 03:39:50;;;;;;;17.42;2.88;;;9.50;99.90;;;;;;5054037;28;20287;-88
2023/06/02 03:42:16;;;;;;;12.32;2.40;;;9.50;99.90;;;;;;5053843;28;20205;-89
2023/06/02 03:44:42;;;;;;;14.32;2.97;;;9.40;99.90;;;;;;5053205;28;20202;-88
2023/06/02 03:47:08;;;;;;;12.55;3.25;;;9.50;99.90;;;;;;5054134;28;20671;-88
2023/06/02 03:49:36;;;;;;;11.27;2.95;;;9.50;99.90;;;;;;5053815;28;20223;-88
2023/06/02 03:52:02;;;;;;;11.43;2.83;;;9.50;99.90;;;;;;5053716;28;20182;-87
2023/06/02 03:54:27;;;;;;;13.52;3.80;;;9.50;99.90;;;;;;5053597;28;20189;-88
2023/06/02 03:56:53;;;;;;;15.82;3.35;;;9.50;99.90;;;;;;5053127;28;20182;-88
2023/06/02 03:59:19;;;;;;;11.48;3.00;;;9.60;99.90;;;;;;5053656;28;20174;-88
2023/06/02 04:01:44;;;;;;;8.15;2.30;;;9.70;99.90;;;;;;5053698;28;20213;-87
2023/06/02 04:04:11;;;;;;;11.45;2.83;;;9.70;99.90;;;;;;5053759;28;20276;-90
2023/06/02 04:06:41;;;;;;;13.27;3.53;;;9.70;99.90;;;;;;5053682;28;20236;-89
2023/06/02 04:09:11;;;;;;;20.92;3.20;;;9.70;99.90;;;;;;5053179;28;20192;-88
2023/06/02 04:11:36;;;;;;;16.77;3.33;;;9.80;99.90;;;;;;5053744;28;20170;-89
2023/06/02 04:14:03;;;;;;;12.02;2.95;;;9.80;99.90;;;;;;5053441;28;20526;-89
2023/06/02 04:16:28;;;;;;;13.98;2.95;;;9.80;99.90;;;;;;5053498;28;20178;-88
2023/06/02 04:18:54;;;;;;;11.13;3.38;;;9.90;99.90;;;;;;5053088;28;20186;-88
2023/06/02 04:21:20;;;;;;;12.77;3.08;;;10.00;99.90;;;;;;5053390;28;20197;-88
2023/06/02 04:23:45;;;;;;;16.30;3.35;;;10.00;99.90;;;;;;5053407;28;20272;-91
2023/06/02 04:26:11;;;;;;;17.08;3.28;;;10.00;99.90;;;;;;5053682;28;20609;-89
2023/06/02 04:28:37;;;;;;;11.52;3.15;;;10.00;99.90;;;;;;5054324;28;20181;-88
2023/06/02 04:31:05;;;;;;;10.95;3.20;;;10.10;99.90;;;;;;5053357;28;20173;-88
2023/06/02 04:33:31;;;;;;;14.80;3.50;;;10.20;99.90;;;;;;5053955;28;20176;-88
2023/06/02 04:35:57;;;;;;;13.00;3.42;;;10.20;99.90;;;;;;5052955;28;20264;-90
2023/06/02 04:38:24;;;;;;;15.10;2.90;;;10.20;99.90;;;;;;5053545;28;20185;-90
2023/06/02 04:40:50;;;;;;;10.90;3.30;;;10.30;99.90;;;;;;5053217;28;20186;-90
2023/06/02 04:43:16;;;;;;;11.27;3.30;;;10.30;99.90;;;;;;5052261;28;20205;-90
2023/06/02 04:45:45;;;;;;;15.77;3.13;;;10.40;99.90;;;;;;5053056;28;20239;-91
2023/06/02 04:48:11;;;;;;;16.73;3.70;;;10.50;99.90;;;;;;5053985;28;20208;-89
2023/06/02 04:50:37;;;;;;;20.33;3.72;;;10.50;99.90;;;;;;5052859;28;20185;-91
2023/06/02 04:53:03;;;;;;;17.73;3.35;;;10.50;99.90;;;;;;5052366;28;20669;-89
2023/06/02 04:55:29;;;;;;;12.68;3.50;;;10.60;99.90;;;;;;5053131;28;20193;-90
2023/06/02 04:57:55;;;;;;;14.35;3.17;;;10.60;99.90;;;;;;5051807;28;20230;-89
2023/06/02 05:00:21;;;;;;;18.02;3.63;;;10.70;99.90;;;;;;5054282;28;20180;-91
2023/06/02 05:02:46;;;;;;;15.57;3.63;;;10.80;99.90;;;;;;5051002;28;20210;-89
2023/06/02 05:05:12;;;;;;;19.95;3.85;;;10.80;99.90;;;;;;5052941;28;20261;-90
2023/06/02 05:07:38;;;;;;;13.15;3.33;;;10.80;99.90;;;;;;5047147;28;20231;-88
2023/06/02 05:10:04;;;;;;;15.45;3.75;;;10.80;99.90;;;;;;5032714;28;20277;-90
2023/06/02 05:12:30;;;;;;;18.15;3.65;;;10.80;99.90;;;;;;5032506;28;20548;-90
2023/06/02 05:14:56;;;;;;;15.50;3.90;;;10.90;99.90;;;;;;5036944;28;20221;-89
2023/06/02 05:17:24;;;;;;;23.08;3.85;;;10.90;99.90;;;;;;5052231;28;20260;-92
2023/06/02 05:19:50;;;;;;;15.70;3.90;;;10.90;99.90;;;;;;5052262;28;20178;-89
2023/06/02 05:22:17;;;;;;;19.42;3.75;;;10.90;99.90;;;;;;5053871;28;20190;-88
2023/06/02 05:24:43;;;;;;;16.30;4.03;;;10.90;99.90;;;;;;5053103;28;20685;-90
2023/06/02 05:27:09;;;;;;;18.50;4.00;;;11.00;99.90;;;;;;5052098;28;20189;-90
2023/06/02 05:29:37;;;;;;;15.18;3.78;;;11.00;99.90;;;;;;5052798;28;20185;-91
2023/06/02 05:32:03;;;;;;;15.38;4.75;;;11.10;99.90;;;;;;5052614;28;20240;-90
2023/06/02 05:34:29;;;;;;;14.48;3.80;;;11.10;99.90;;;;;;5052682;28;20182;-89
2023/06/02 05:36:54;;;;;;;15.30;4.25;;;11.20;99.90;;;;;;5052748;28;20178;-89
2023/06/02 05:39:20;;;;;;;18.95;4.53;;;11.20;99.90;;;;;;5052897;28;20182;-92
2023/06/02 05:41:45;;;;;;;12.00;4.05;;;11.30;99.90;;;;;;5051555;28;20285;-90
2023/06/02 05:44:11;;;;;;;15.38;4.30;;;11.30;99.90;;;;;;5052592;28;20178;-91
2023/06/02 05:46:39;;;;;;;23.23;4.97;;;11.40;99.90;;;;;;5053558;28;20189;-89
2023/06/02 05:49:05;;;;;;;20.38;4.85;;;11.50;99.90;;;;;;5052346;28;20540;-90
2023/06/02 05:51:31;;;;;;;16.48;4.50;;;11.50;99.90;;;;;;5052752;28;20185;-89
2023/06/02 05:53:57;;;;;;;22.05;4.82;;;11.50;99.90;;;;;;5052724;28;20241;-90
2023/06/02 05:56:22;;;;;;;14.50;3.90;;;11.50;99.90;;;;;;5052827;28;20216;-89
2023/06/02 05:58:48;;;;;;;12.63;4.20;;;11.60;99.90;;;;;;5052229;28;20528;-90
2023/06/02 06:01:14;;;;;;;18.23;4.47;;;11.50;99.90;;;;;;5052481;28;20182;-90
2023/06/02 06:03:40;;;;;;;17.70;4.15;;;11.50;99.90;;;;;;5052112;28;20264;-88
2023/06/02 06:06:06;;;;;;;22.52;4.63;;;11.60;99.90;;;;;;5052718;28;20679;-90
2023/06/02 06:08:31;;;;;;;21.27;5.13;;;11.60;99.90;;;;;;5053141;28;20180;-91
2023/06/02 06:10:57;;;;;;;18.58;4.75;;;11.70;99.90;;;;;;5056079;28;20182;-91
2023/06/02 06:13:23;;;;;;;15.95;4.00;;;11.80;99.90;;;;;;5055925;28;20217;-88
2023/06/02 06:15:49;;;;;;;14.50;4.00;;;11.80;99.90;;;;;;5055674;28;20640;-91
2023/06/02 06:18:14;;;;;;;16.35;4.15;;;11.90;99.90;;;;;;5055652;28;20177;-89
2023/06/02 06:20:45;;;;;;;20.45;4.63;;;11.80;99.90;;;;;;5055720;28;20177;-90
2023/06/02 06:23:13;;;;;;;16.75;4.13;;;11.90;99.90;;;;;;5055931;28;20292;-90
2023/06/02 06:25:38;;;;;;;17.27;4.18;;;12.00;99.90;;;;;;5055816;28;20173;-92
2023/06/02 06:28:04;;;;;;;15.65;4.10;;;12.00;99.90;;;;;;5055524;28;20526;-91
2023/06/02 06:30:30;;;;;;;13.30;3.90;;;12.10;99.90;;;;;;5054779;28;20261;-89
2023/06/02 06:32:55;;;;;;;15.60;4.32;;;12.20;99.90;;;;;;5055472;28;20178;-89
2023/06/02 06:35:21;;;;;;;13.70;4.00;;;12.40;99.90;;;;;;5055714;28;20174;-89
2023/06/02 06:37:47;;;;;;;14.68;3.97;;;12.50;99.90;;;;;;5055651;28;20220;-90
2023/06/02 06:40:12;;;;;;;18.58;4.05;;;12.60;99.90;;;;;;5055522;28;20170;-88
2023/06/02 06:42:38;;;;;;;15.32;4.55;;;12.70;99.90;;;;;;5055193;28;20206;-89
2023/06/02 06:45:04;;;;;;;14.43;4.47;;;12.80;99.90;;;;;;5055182;28;20186;-88
2023/06/02 06:47:30;;;;;;;13.70;3.58;;;12.80;99.90;;;;;;5055375;28;20177;-88
2023/06/02 06:49:56;;;;;;;12.68;3.63;;;12.90;99.90;;;;;;5055364;28;20188;-89
2023/06/02 06:52:21;;;;;;;17.85;4.10;;;12.80;99.90;;;;;;5055221;28;20308;-88
2023/06/02 06:54:47;;;;;;;14.85;4.15;;;12.80;99.90;;;;;;5055342;28;20251;-89
2023/06/02 06:57:13;;;;;;;14.85;4.18;;;12.70;99.90;;;;;;5054952;28;20225;-91
2023/06/02 06:59:44;;;;;;;13.43;3.58;;;12.70;99.90;;;;;;5054573;28;20753;-89
2023/06/02 07:02:10;;;;;;;20.02;4.43;;;12.80;99.90;;;;;;5054636;28;20549;-90
2023/06/02 07:04:36;;;;;;;12.23;3.88;;;12.80;99.90;;;;;;5055040;28;20166;-92
2023/06/02 07:07:02;;;;;;;14.63;4.35;;;12.80;99.90;;;;;;5055314;28;20174;-89
2023/06/02 07:09:27;;;;;;;14.10;3.85;;;12.80;99.90;;;;;;5055102;28;20178;-90
2023/06/02 07:11:53;;;;;;;12.07;3.47;;;12.90;99.90;;;;;;5054746;28;20178;-90
2023/06/02 07:14:19;;;;;;;16.65;4.20;;;12.90;99.90;;;;;;5054094;28;20231;-91
2023/06/02 07:16:46;;;;;;;16.80;4.07;;;13.00;99.90;;;;;;5054829;28;20631;-88
2023/06/02 07:19:11;;;;;;;15.18;3.97;;;13.00;99.90;;;;;;5054384;28;20213;-89
2023/06/02 07:21:37;;;;;;;24.35;4.80;;;13.10;99.90;;;;;;5054069;28;20232;-92
2023/06/02 07:24:03;;;;;;;13.07;3.70;;;13.10;99.90;;;;;;5054741;28;20184;-89
2023/06/02 07:26:28;;;;;;;18.67;4.35;;;13.20;99.90;;;;;;5054692;28;20228;-90
2023/06/02 07:28:56;;;;;;;15.50;3.97;;;13.30;99.90;;;;;;5054411;28;20177;-89
2023/06/02 07:31:23;;;;;;;18.20;3.65;;;13.50;99.90;;;;;;5054516;28;20173;-91
2023/06/02 07:33:48;;;;;;;16.00;4.28;;;13.40;99.90;;;;;;5055255;28;20173;-89
2023/06/02 07:36:15;;;;;;;16.13;3.90;;;13.50;99.90;;;;;;5056299;28;20205;-90
2023/06/02 07:38:41;;;;;;;15.32;3.70;;;13.40;99.90;;;;;;5055082;28;20188;-91
2023/06/02 07:41:08;;;;;;;9.82;3.15;;;13.40;99.90;;;;;;5055184;28;20208;-90
2023/06/02 07:43:34;;;;;;;13.98;3.65;;;13.50;99.90;;;;;;5054437;28;20718;-89
2023/06/02 07:46:00;;;;;;;11.63;3.53;;;13.50;99.90;;;;;;5055121;28;20276;-89
2023/06/02 07:48:25;;;;;;;10.60;3.30;;;13.50;99.90;;;;;;5054802;28;20607;-87
2023/06/02 07:50:55;;;;;;;16.33;3.90;;;13.60;99.90;;;;;;5054707;28;20212;-90
2023/06/02 07:53:22;;;;;;;12.82;3.45;;;13.60;99.90;;;;;;5054709;28;20205;-89
2023/06/02 07:55:48;;;;;;;14.80;3.47;;;13.70;99.90;;;;;;5054698;28;20268;-88
2023/06/02 07:58:14;;;;;;;13.48;3.75;;;13.70;99.90;;;;;;5054290;28;20324;-88
2023/06/02 08:00:41;;;;;;;13.88;3.63;;;13.90;99.90;;;;;;5054836;28;20220;-89
2023/06/02 08:03:07;;;;;;;10.68;2.80;;;13.90;99.90;;;;;;5054489;28;20214;-89
2023/06/02 08:05:33;;;;;;;18.17;3.80;;;14.00;99.90;;;;;;5054429;28;20201;-89
2023/06/02 08:07:59;;;;;;;14.70;3.53;;;14.00;99.90;;;;;;5055883;28;20613;-90
2023/06/02 08:10:24;;;;;;;14.48;3.85;;;14.10;99.90;;;;;;5054243;28;20181;-89
2023/06/02 08:12:50;;;;;;;12.77;3.30;;;14.20;99.90;;;;;;5053823;28;20177;-92
2023/06/02 08:15:16;;;;;;;14.57;3.80;;;14.40;99.90;;;;;;5047467;28;20210;-92
2023/06/02 08:17:41;;;;;;;18.63;3.95;;;14.60;99.90;;;;;;5035623;28;20173;-91
2023/06/02 08:20:10;;;;;;;12.27;3.95;;;14.80;99.90;;;;;;5034727;28;20269;-91
2023/06/02 08:22:44;;;;;;;15.45;3.40;;;15.10;99.90;;;;;;5034245;28;20665;-91
2023/06/02 08:25:12;;;;;;;12.30;3.53;;;15.40;99.90;;;;;;5034537;28;20201;-89
2023/06/02 08:27:38;;;;;;;13.95;3.40;;;15.40;99.90;;;;;;5034572;28;20179;-91
2023/06/02 08:30:05;;;;;;;20.13;3.53;;;15.50;99.90;;;;;;5033914;28;20178;-91
2023/06/02 08:32:34;;;;;;;12.07;3.25;;;15.60;99.90;;;;;;5033363;28;20175;-89
2023/06/02 08:35:02;;;;;;;11.98;3.33;;;15.40;99.90;;;;;;5034223;28;20186;-90
2023/06/02 08:37:32;;;;;;;12.55;3.13;;;15.30;99.90;;;;;;5034127;28;20707;-89
2023/06/02 08:39:58;;;;;;;12.32;3.42;;;15.20;99.90;;;;;;5033108;28;20197;-92
2023/06/02 08:42:26;;;;;;;10.85;3.35;;;15.00;99.90;;;;;;5032081;28;20582;-89
2023/06/02 08:44:52;;;;;;;11.15;3.45;;;15.00;99.90;;;;;;5036125;28;20245;-90
2023/06/02 08:47:22;;;;;;;10.90;3.22;;;15.00;99.90;;;;;;5053300;28;20224;-91
2023/06/02 08:49:48;;;;;;;14.00;3.50;;;14.90;99.90;;;;;;5052911;28;20174;-91
2023/06/02 08:52:21;;;;;;;14.55;3.10;;;14.80;99.90;;;;;;5052608;28;20278;-90
2023/06/02 08:54:47;;;;;;;11.73;3.25;;;14.60;99.90;;;;;;5052920;28;20518;-92
2023/06/02 08:57:16;;;;;;;18.95;4.13;;;14.70;99.90;;;;;;5054268;28;20206;-93
2023/06/02 08:59:43;;;;;;;12.07;3.42;;;14.70;99.90;;;;;;5052704;28;20174;-89
2023/06/02 09:02:09;;;;;;;11.43;3.50;;;14.50;99.90;;;;;;5052653;28;20214;-90
2023/06/02 09:04:35;;;;;;;15.68;3.42;;;14.60;99.90;;;;;;5052694;28;20278;-88
2023/06/02 09:07:13;;;;;;;13.38;3.50;;;14.60;99.90;;;;;;5052628;28;20609;-88
2023/06/02 09:09:40;;;;;;;12.68;3.65;;;14.70;99.90;;;;;;5052739;28;20181;-86
2023/06/02 09:12:08;;;;;;;12.50;3.33;;;14.90;99.90;;;;;;5052776;28;20189;-89
2023/06/02 09:14:34;;;;;;;11.70;3.25;;;14.90;99.90;;;;;;5052922;28;20550;-92
2023/06/02 09:17:00;;;;;;;10.93;3.63;;;15.10;99.90;;;;;;5052658;28;20178;-88
2023/06/02 09:19:26;;;;;;;17.83;3.95;;;15.30;99.90;;;;;;5052754;28;20182;-88
2023/06/02 09:22:03;;;;;;;17.67;3.70;;;15.30;99.90;;;;;;5052412;28;20638;-87
2023/06/02 09:24:31;;;;;;;15.75;3.10;;;15.60;99.90;;;;;;5052802;28;20363;-88
2023/06/02 09:26:57;;;;;;;14.52;3.95;;;15.90;99.90;;;;;;5052602;28;20235;-87
2023/06/02 09:29:23;;;;;;;14.88;4.00;;;16.20;99.90;;;;;;5052628;28;20178;-88
2023/06/02 09:31:54;;;;;;;18.58;3.85;;;16.40;99.90;;;;;;5052781;28;20327;-89
2023/06/02 09:34:32;;;;;;;9.82;3.00;;;16.40;99.90;;;;;;5052664;28;20174;-90
2023/06/02 09:37:10;;;;;;;15.90;3.53;;;16.50;99.90;;;;;;5052967;28;20193;-89
2023/06/02 09:39:45;;;;;;;12.48;3.63;;;16.60;99.90;;;;;;5052651;28;20623;-90
2023/06/02 09:42:14;;;;;;;13.40;3.20;;;16.60;99.90;;;;;;5052331;28;20205;-88
2023/06/02 09:44:40;;;;;;;18.08;3.72;;;16.60;99.90;;;;;;5055562;28;20177;-87
2023/06/02 09:47:23;;;;;;;14.82;3.13;;;16.50;99.90;;;;;;5056507;28;20174;-89
2023/06/02 09:49:48;;;;;;;14.27;3.38;;;16.40;99.90;;;;;;5056353;28;20516;-90
2023/06/02 09:52:16;;;;;;;12.32;3.08;;;16.30;99.90;;;;;;5057434;28;20170;-93
2023/06/02 09:54:47;;;;;;;12.75;3.17;;;16.40;99.90;;;;;;5055252;28;20185;-90
2023/06/02 09:57:14;;;;;;;12.85;3.65;;;16.40;99.90;;;;;;5057337;28;20224;-89
2023/06/02 09:59:41;;;;;;;17.73;3.45;;;16.40;99.90;;;;;;5056256;28;20269;-90
2023/06/02 10:02:08;;;;;;;7.38;2.70;;;16.30;99.90;;;;;;5056140;28;20251;-90
2023/06/02 10:04:34;;;;;;;10.48;2.67;;;16.30;99.90;;;;;;5056354;28;20550;-90
2023/06/02 10:07:13;;;;;;;11.27;2.80;;;16.30;99.90;;;;;;5056138;28;20601;-91
2023/06/02 10:09:57;;;;;;;13.27;3.50;;;16.20;99.90;;;;;;5055880;28;20185;-91
2023/06/02 10:12:51;;;;;;;9.20;2.88;;;16.10;99.90;;;;;;5057229;28;20159;-88
2023/06/02 10:15:39;;;;;;;17.80;3.88;;;16.00;99.90;;;;;;5054280;28;20185;-90
2023/06/02 10:18:22;;;;;;;15.18;3.80;;;15.80;99.90;;;;;;5055985;28;20178;-89
2023/06/02 10:21:00;;;;;;;13.68;3.20;;;15.60;99.90;;;;;;5057060;28;20248;-90
2023/06/02 10:23:52;;;;;;;13.05;3.17;;;15.60;99.90;;;;;;5055620;28;20695;-91
2023/06/02 10:26:27;;;;;;;14.13;3.53;;;15.80;99.90;;;;;;5055968;28;20214;-90
2023/06/02 10:28:54;;;;;;;14.30;3.22;;;16.00;99.90;;;;;;5055800;28;20188;-90
2023/06/02 10:31:30;;;;;;;12.23;2.97;;;16.10;99.90;;;;;;5055997;28;20205;-91
2023/06/02 10:33:58;;;;;;;12.10;3.05;;;16.40;99.90;;;;;;5055368;28;20189;-90
2023/06/02 10:36:24;;;;;;;11.65;3.50;;;16.50;99.90;;;;;;5055712;28;20268;-92
2023/06/02 10:38:50;;;;;;;11.23;2.97;;;16.70;99.90;;;;;;5055800;28;20564;-91
2023/06/02 10:41:21;;;;;;;9.60;2.65;;;16.60;99.90;;;;;;5055343;28;20185;-93
2023/06/02 10:44:22;;;;;;;11.70;3.20;;;16.70;99.90;;;;;;5056472;28;20196;-92
2023/06/02 10:47:08;;;;;;;10.38;3.00;;;16.60;99.90;;;;;;5055440;28;20181;-91
2023/06/02 10:50:04;;;;;;;10.85;2.58;;;16.80;99.90;;;;;;5054907;28;20527;-92
2023/06/02 10:52:31;;;;;;;12.88;3.10;;;17.30;99.90;;;;;;5055474;28;20605;-91
2023/06/02 10:55:14;;;;;;;9.55;2.80;;;17.50;99.90;;;;;;5053776;28;20193;-91
2023/06/02 10:57:59;;;;;;;14.95;3.13;;;17.40;99.90;;;;;;5054829;28;20248;-90
2023/06/02 11:00:39;;;;;;;7.93;2.30;;;17.60;99.90;;;;;;5055128;28;20182;-93
2023/06/02 11:03:28;;;;;;;9.50;3.05;;;18.00;99.90;;;;;;5054930;28;20668;-93
2023/06/02 11:06:19;;;;;;;9.85;2.60;;;18.30;99.90;;;;;;5056231;28;20256;-95
2023/06/02 11:08:46;;;;;;;7.72;2.42;;;18.00;99.90;;;;;;5054803;28;20178;-93
2023/06/02 11:11:11;;;;;;;15.50;3.58;;;17.70;99.90;;;;;;5054458;28;20173;-92
2023/06/02 11:13:58;;;;;;;10.27;3.00;;;17.30;99.90;;;;;;5054732;28;20204;-90
2023/06/02 11:16:27;;;;;;;9.57;2.78;;;17.20;99.90;;;;;;5055231;28;20261;-93
2023/06/02 11:18:54;;;;;;;7.18;2.67;;;17.00;99.90;;;;;;5054900;28;20616;-90
2023/06/02 11:21:21;;;;;;;7.97;2.58;;;16.80;99.90;;;;;;5074699;28;20195;-90
2023/06/02 11:23:47;;;;;;;11.77;2.97;;;16.80;99.90;;;;;;5071772;28;20196;-90
2023/06/02 11:26:21;;;;;;;15.60;3.30;;;16.80;99.90;;;;;;5053050;28;20193;-92
2023/06/02 11:28:47;;;;;;;10.27;2.90;;;16.80;99.90;;;;;;5051476;28;20221;-92
2023/06/02 11:31:15;;;;;;;9.57;2.70;;;16.90;99.90;;;;;;5053301;28;20178;-91
2023/06/02 11:33:49;;;;;;;10.05;2.58;;;17.10;99.90;;;;;;5054158;28;20181;-90
2023/06/02 11:36:39;;;;;;;5.72;2.40;;;17.60;99.90;;;;;;5054374;28;20192;-89
2023/06/02 11:39:09;;;;;;;9.38;2.90;;;18.20;99.90;;;;;;5054542;28;20253;-91
2023/06/02 11:41:35;;;;;;;7.75;2.60;;;18.40;99.90;;;;;;5054001;28;20272;-90
2023/06/02 11:44:06;;;;;;;10.30;2.25;;;18.60;99.90;;;;;;5054188;28;20272;-91
2023/06/02 11:46:32;;;;;;;8.35;2.60;;;18.80;99.70;;;;;;5054768;28;20508;-91
2023/06/02 11:48:57;;;;;;;5.97;2.25;;;19.00;99.70;;;;;;5054223;28;20174;-91
2023/06/02 11:51:23;;;;;;;10.98;2.40;;;19.40;99.90;;;;;;5054341;28;20335;-96
2023/06/02 11:54:00;;;;;;;7.78;2.22;;;19.70;98.90;;;;;;5054421;28;20196;-93
2023/06/02 11:56:26;;;;;;;7.65;2.50;;;19.50;98.20;;;;;;5053167;28;20186;-92
2023/06/02 11:58:52;;;;;;;7.55;2.40;;;19.00;98.40;;;;;;5053902;28;20232;-92
2023/06/02 12:01:21;;;;;;;12.30;2.38;;;18.60;98.40;;;;;;5053937;28;20177;-92
2023/06/02 12:04:03;;;;;;;8.10;2.53;;;18.40;99.90;;;;;;5053983;28;20194;-92
2023/06/02 12:06:31;;;;;;;6.53;2.42;;;18.40;99.20;;;;;;5054322;28;20212;-96
2023/06/02 12:09:12;;;;;;;7.28;2.92;;;18.50;98.40;;;;;;5054068;28;20620;-94
2023/06/02 12:11:38;;;;;;;6.10;2.30;;;18.70;98.50;;;;;;5054338;28;20177;-91
2023/06/02 12:14:06;;;;;;;8.23;2.30;;;18.90;99.00;;;;;;5053703;28;20253;-89
2023/06/02 12:16:34;;;;;;;10.88;2.72;;;18.90;98.40;;;;;;5053699;28;20205;-92
2023/06/02 12:19:14;;;;;;;6.63;2.17;;;19.00;98.40;;;;;;5054693;28;20169;-92
2023/06/02 12:21:40;;;;;;;6.45;2.10;;;18.90;98.40;;;;;;5053481;28;20227;-93
2023/06/02 12:24:07;;;;;;;4.97;2.10;;;18.80;99.20;;;;;;5054771;28;20177;-94
2023/06/02 12:26:45;;;;;;;6.10;2.00;;;18.70;98.00;;;;;;5053332;28;20189;-92
2023/06/02 12:29:13;;;;;;;6.68;2.30;;;18.70;98.70;;;;;;5053871;28;20180;-93
2023/06/02 12:31:39;;;;;;;7.43;2.20;;;18.80;98.80;;;;;;5053449;28;20182;-91
2023/06/02 12:34:08;;;;;;;5.82;2.25;;;19.30;98.20;;;;;;5053614;28;20209;-88
2023/06/02 12:36:35;;;;;;;7.43;2.22;;;19.30;97.10;;;;;;5053712;28;20165;-91
2023/06/02 12:39:03;;;;;;;6.47;2.65;;;19.10;97.00;;;;;;5053214;28;20189;-91
2023/06/02 12:41:29;;;;;;;8.10;2.38;;;18.90;96.80;;;;;;5053009;28;20208;-92
2023/06/02 12:43:55;;;;;;;8.13;2.33;;;18.80;96.60;;;;;;5053538;28;20225;-89
2023/06/02 12:46:21;;;;;;;8.05;1.88;;;18.60;97.70;;;;;;5052603;28;20205;-89
2023/06/02 12:48:47;;;;;;;4.88;1.95;;;18.50;97.40;;;;;;5053492;28;20189;-94